createdAt,value
2023-02-13T00:00:05.590Z,85.22
2023-02-13T00:01:05.568Z,84.91
2023-02-13T00:02:05.611Z,84.91
2023-02-13T00:03:05.553Z,84.91
2023-02-13T00:04:05.559Z,85.22
2023-02-13T00:05:05.542Z,85.22
2023-02-13T00:06:05.509Z,85.84
2023-02-13T00:07:05.504Z,85.74
2023-02-13T00:08:05.545Z,85.02
2023-02-13T00:09:07.110Z,85.22
2023-02-13T00:10:05.479Z,85.02
2023-02-13T00:11:05.485Z,85.22
2023-02-13T00:12:05.460Z,85.43
2023-02-13T00:13:05.503Z,84.91
2023-02-13T00:14:05.448Z,85.12
2023-02-13T00:15:05.441Z,85.74
2023-02-13T00:16:05.504Z,85.74
2023-02-13T00:17:05.399Z,85.94
2023-02-13T00:18:05.435Z,86.15
2023-02-13T00:19:05.377Z,86.05
2023-02-13T00:20:05.403Z,85.43
2023-02-13T00:21:05.375Z,85.63
2023-02-13T00:22:05.371Z,85.53
2023-02-13T00:23:05.337Z,85.33
2023-02-13T00:24:05.364Z,85.33
2023-02-13T00:25:05.320Z,85.12
2023-02-13T00:26:05.310Z,85.84
2023-02-13T00:27:05.284Z,85.33
2023-02-13T00:28:05.300Z,85.33
2023-02-13T00:29:05.250Z,85.74
2023-02-13T00:30:05.251Z,85.63
2023-02-13T00:31:05.325Z,85.94
2023-02-13T00:32:05.358Z,85.84
2023-02-13T00:33:05.213Z,85.84
2023-02-13T00:34:05.215Z,85.43
2023-02-13T00:35:05.224Z,85.33
2023-02-13T00:36:05.188Z,85.43
2023-02-13T00:37:05.171Z,85.53
2023-02-13T00:38:05.165Z,85.94
2023-02-13T00:39:05.139Z,86.05
2023-02-13T00:40:05.154Z,85.84
2023-02-13T00:41:05.144Z,85.98
2023-02-13T00:42:05.143Z,85.84
2023-02-13T00:43:05.114Z,85.74
2023-02-13T00:44:05.109Z,85.74
2023-02-13T00:45:05.069Z,85.63
2023-02-13T00:46:05.122Z,85.63
2023-02-13T00:47:05.101Z,85.63
2023-02-13T00:48:05.045Z,85.84
2023-02-13T00:49:05.033Z,86.19
2023-02-13T00:50:05.083Z,85.98
2023-02-13T00:51:05.004Z,85.74
2023-02-13T00:52:05.019Z,85.53
2023-02-13T00:53:05.053Z,85.33
2023-02-13T00:54:04.991Z,85.22
2023-02-13T00:55:04.991Z,85.22
2023-02-13T00:56:04.998Z,85.22
2023-02-13T00:57:04.978Z,85.84
2023-02-13T00:58:04.944Z,85.63
2023-02-13T00:59:04.937Z,85.43
2023-02-13T01:00:04.913Z,85.33
2023-02-13T01:01:04.910Z,85.33
2023-02-13T01:02:04.942Z,85.22
2023-02-13T01:03:04.922Z,85.22
2023-02-13T01:04:04.904Z,85.33
2023-02-13T01:05:04.880Z,85.22
2023-02-13T01:06:04.890Z,85.02
2023-02-13T01:07:04.856Z,85.33
2023-02-13T01:08:04.850Z,85.63
2023-02-13T01:09:04.826Z,85.53
2023-02-13T01:10:04.843Z,85.33
2023-02-13T01:11:04.808Z,85.12
2023-02-13T01:12:04.812Z,84.91
2023-02-13T01:13:04.769Z,85.12
2023-02-13T01:14:04.781Z,85.12
2023-02-13T01:15:04.777Z,85.33
2023-02-13T01:16:04.772Z,85.33
2023-02-13T01:17:04.757Z,85.22
2023-02-13T01:18:04.750Z,85.22
2023-02-13T01:19:04.731Z,85.33
2023-02-13T01:20:04.707Z,85.43
2023-02-13T01:21:04.687Z,85.22
2023-02-13T01:22:04.752Z,85.12
2023-02-13T01:23:04.664Z,85.33
2023-02-13T01:24:04.664Z,85.53
2023-02-13T01:25:04.666Z,85.53
2023-02-13T01:26:04.651Z,85.33
2023-02-13T01:27:04.645Z,85.68
2023-02-13T01:28:04.636Z,85.47
2023-02-13T01:29:04.612Z,85.47
2023-02-13T01:30:04.608Z,85.43
2023-02-13T01:31:04.716Z,85.68
2023-02-13T01:32:04.693Z,85.57
2023-02-13T01:33:04.587Z,85.78
2023-02-13T01:34:04.571Z,85.57
2023-02-13T01:35:04.566Z,85.33
2023-02-13T01:36:04.562Z,85.47
2023-02-13T01:37:04.563Z,85.57
2023-02-13T01:38:04.527Z,85.74
2023-02-13T01:39:04.534Z,85.63
2023-02-13T01:40:04.486Z,85.22
2023-02-13T01:41:04.476Z,85.12
2023-02-13T01:42:04.561Z,85.02
2023-02-13T01:43:04.500Z,85.22
2023-02-13T01:44:04.474Z,85.22
2023-02-13T01:45:04.442Z,85.43
2023-02-13T01:46:04.421Z,85.33
2023-02-13T01:47:04.484Z,85.33
2023-02-13T01:48:05.892Z,85.43
2023-02-13T01:49:04.398Z,85.53
2023-02-13T01:50:04.389Z,85.12
2023-02-13T01:51:04.367Z,85.12
2023-02-13T01:52:04.364Z,85.02
2023-02-13T01:53:04.351Z,85.33
2023-02-13T01:54:04.380Z,85.22
2023-02-13T01:55:04.341Z,85.33
2023-02-13T01:56:04.332Z,85.88
2023-02-13T01:57:04.324Z,86.08
2023-02-13T01:58:04.289Z,85.68
2023-02-13T01:59:04.297Z,85.78
2023-02-13T02:00:04.263Z,85.88
2023-02-13T02:01:04.248Z,85.68
2023-02-13T02:02:04.337Z,85.47
2023-02-13T02:03:04.229Z,85.47
2023-02-13T02:04:04.220Z,85.57
2023-02-13T02:05:04.212Z,85.36
2023-02-13T02:06:04.205Z,85.26
2023-02-13T02:07:04.232Z,85.43
2023-02-13T02:08:04.189Z,85.33
2023-02-13T02:09:04.197Z,85.26
2023-02-13T02:10:04.248Z,85.36
2023-02-13T02:11:04.171Z,85.36
2023-02-13T02:12:04.153Z,85.36
2023-02-13T02:13:04.145Z,85.47
2023-02-13T02:14:04.140Z,85.74
2023-02-13T02:15:04.114Z,85.68
2023-02-13T02:16:04.146Z,85.26
2023-02-13T02:17:04.090Z,85.26
2023-02-13T02:18:04.105Z,85.12
2023-02-13T02:19:04.061Z,85.47
2023-02-13T02:20:04.057Z,85.78
2023-02-13T02:21:04.068Z,85.78
2023-02-13T02:22:04.044Z,85.88
2023-02-13T02:23:04.018Z,85.78
2023-02-13T02:24:04.025Z,85.36
2023-02-13T02:25:04.003Z,85.36
2023-02-13T02:26:04.011Z,85.57
2023-02-13T02:27:03.987Z,85.68
2023-02-13T02:28:04.001Z,85.47
2023-02-13T02:29:03.953Z,85.26
2023-02-13T02:30:03.964Z,85.36
2023-02-13T02:31:04.041Z,85.47
2023-02-13T02:32:03.950Z,85.88
2023-02-13T02:33:03.917Z,86.08
2023-02-13T02:34:03.887Z,85.98
2023-02-13T02:35:03.894Z,86.08
2023-02-13T02:36:03.865Z,85.68
2023-02-13T02:37:03.903Z,85.78
2023-02-13T02:38:03.857Z,85.98
2023-02-13T02:39:03.845Z,85.88
2023-02-13T02:40:03.825Z,85.78
2023-02-13T02:41:03.854Z,85.68
2023-02-13T02:42:03.835Z,85.47
2023-02-13T02:43:03.838Z,85.57
2023-02-13T02:44:03.815Z,85.47
2023-02-13T02:45:03.793Z,85.98
2023-02-13T02:46:03.774Z,85.78
2023-02-13T02:47:03.774Z,85.47
2023-02-13T02:48:03.755Z,85.16
2023-02-13T02:49:03.751Z,85.16
2023-02-13T02:50:03.796Z,85.16
2023-02-13T02:51:10.228Z,85.06
2023-02-13T02:52:03.709Z,84.85
2023-02-13T02:53:03.701Z,84.95
2023-02-13T02:54:03.694Z,85.06
2023-02-13T02:55:03.690Z,85.06
2023-02-13T02:56:03.658Z,85.16
2023-02-13T02:57:03.661Z,85.47
2023-02-13T02:58:03.651Z,85.36
2023-02-13T02:59:03.649Z,84.64
2023-02-13T03:00:03.624Z,84.75
2023-02-13T03:01:03.728Z,85.16
2023-02-13T03:02:03.618Z,85.06
2023-02-13T03:03:03.586Z,85.16
2023-02-13T03:04:03.694Z,84.75
2023-02-13T03:05:03.571Z,84.64
2023-02-13T03:06:03.566Z,84.75
2023-02-13T03:07:03.566Z,84.95
2023-02-13T03:08:03.561Z,85.16
2023-02-13T03:09:03.513Z,85.36
2023-02-13T03:10:03.563Z,85.06
2023-02-13T03:11:03.489Z,84.95
2023-02-13T03:12:03.493Z,85.16
2023-02-13T03:13:03.479Z,85.16
2023-02-13T03:14:03.506Z,85.26
2023-02-13T03:15:03.465Z,85.36
2023-02-13T03:16:03.571Z,85.16
2023-02-13T03:17:03.441Z,85.16
2023-02-13T03:18:03.431Z,85.16
2023-02-13T03:19:03.456Z,85.26
2023-02-13T03:20:03.406Z,85.36
2023-02-13T03:21:03.405Z,85.26
2023-02-13T03:22:03.394Z,85.26
2023-02-13T03:23:03.366Z,85.16
2023-02-13T03:24:03.385Z,84.95
2023-02-13T03:25:03.366Z,85.16
2023-02-13T03:26:03.335Z,85.68
2023-02-13T03:27:03.350Z,85.51
2023-02-13T03:28:03.407Z,85.36
2023-02-13T03:29:03.311Z,84.95
2023-02-13T03:30:03.300Z,84.85
2023-02-13T03:31:03.342Z,84.75
2023-02-13T03:32:03.295Z,84.75
2023-02-13T03:33:03.273Z,84.95
2023-02-13T03:34:03.260Z,84.95
2023-02-13T03:35:03.246Z,85.06
2023-02-13T03:36:03.258Z,84.85
2023-02-13T03:37:03.261Z,84.95
2023-02-13T03:38:03.195Z,85.16
2023-02-13T03:39:03.183Z,85.06
2023-02-13T03:40:03.244Z,85.16
2023-02-13T03:41:03.203Z,84.85
2023-02-13T03:42:03.181Z,84.85
2023-02-13T03:43:03.142Z,85.26
2023-02-13T03:44:03.137Z,85.47
2023-02-13T03:45:03.158Z,85.26
2023-02-13T03:46:03.161Z,85.36
2023-02-13T03:47:03.137Z,85.51
2023-02-13T03:48:03.108Z,85.26
2023-02-13T03:49:03.097Z,84.99
2023-02-13T03:50:03.062Z,84.95
2023-02-13T03:51:03.078Z,84.64
2023-02-13T03:52:03.049Z,84.64
2023-02-13T03:53:03.086Z,84.34
2023-02-13T03:54:03.021Z,84.34
2023-02-13T03:55:03.095Z,84.44
2023-02-13T03:56:03.004Z,84.23
2023-02-13T03:57:02.992Z,84.34
2023-02-13T03:58:02.989Z,84.34
2023-02-13T03:59:03.042Z,84.34
2023-02-13T04:00:02.976Z,84.44
2023-02-13T04:01:03.090Z,84.79
2023-02-13T04:02:02.991Z,84.58
2023-02-13T04:03:02.943Z,84.69
2023-02-13T04:04:02.929Z,84.48
2023-02-13T04:05:02.918Z,84.58
2023-02-13T04:06:02.889Z,84.38
2023-02-13T04:07:02.929Z,84.13
2023-02-13T04:08:02.883Z,84.44
2023-02-13T04:09:02.859Z,84.44
2023-02-13T04:10:02.865Z,84.34
2023-02-13T04:11:02.870Z,84.44
2023-02-13T04:12:02.846Z,84.44
2023-02-13T04:13:02.835Z,84.48
2023-02-13T04:14:02.796Z,84.58
2023-02-13T04:15:02.810Z,84.34
2023-02-13T04:16:02.880Z,84.38
2023-02-13T04:17:02.868Z,84.54
2023-02-13T04:18:02.762Z,84.38
2023-02-13T04:19:02.759Z,84.38
2023-02-13T04:20:02.762Z,84.27
2023-02-13T04:21:02.790Z,84.38
2023-02-13T04:22:02.734Z,84.34
2023-02-13T04:23:02.727Z,84.34
2023-02-13T04:24:02.733Z,84.38
2023-02-13T04:25:02.712Z,84.38
2023-02-13T04:26:02.669Z,84.58
2023-02-13T04:27:02.699Z,84.58
2023-02-13T04:28:02.729Z,84.89
2023-02-13T04:29:02.673Z,85.20
2023-02-13T04:30:02.662Z,85.20
2023-02-13T04:31:02.811Z,85.20
2023-02-13T04:32:02.707Z,85.10
2023-02-13T04:33:02.618Z,85.30
2023-02-13T04:34:02.610Z,85.10
2023-02-13T04:35:02.579Z,85.20
2023-02-13T04:36:02.613Z,85.44
2023-02-13T04:37:02.574Z,85.41
2023-02-13T04:38:02.552Z,85.24
2023-02-13T04:39:02.540Z,84.89
2023-02-13T04:40:02.524Z,84.89
2023-02-13T04:41:02.535Z,84.93
2023-02-13T04:42:02.524Z,84.89
2023-02-13T04:43:02.528Z,84.79
2023-02-13T04:44:02.486Z,84.79
2023-02-13T04:45:02.494Z,84.58
2023-02-13T04:46:02.567Z,84.48
2023-02-13T04:47:02.478Z,84.48
2023-02-13T04:48:02.449Z,84.58
2023-02-13T04:49:02.446Z,84.48
2023-02-13T04:50:02.415Z,84.58
2023-02-13T04:51:02.407Z,84.58
2023-02-13T04:52:02.435Z,84.38
2023-02-13T04:53:02.401Z,84.58
2023-02-13T04:54:02.396Z,84.72
2023-02-13T04:55:02.366Z,84.72
2023-02-13T04:56:02.350Z,84.48
2023-02-13T04:57:02.404Z,84.48
2023-02-13T04:58:02.330Z,84.69
2023-02-13T04:59:02.324Z,84.83
2023-02-13T05:00:02.330Z,84.69
2023-02-13T05:01:02.381Z,84.69
2023-02-13T05:02:02.303Z,85.03
2023-02-13T05:03:02.285Z,84.83
2023-02-13T05:04:02.335Z,84.72
2023-02-13T05:05:02.250Z,84.79
2023-02-13T05:06:02.240Z,84.48
2023-02-13T05:07:02.253Z,84.48
2023-02-13T05:08:02.229Z,84.48
2023-02-13T05:09:02.203Z,84.48
2023-02-13T05:10:02.188Z,84.89
2023-02-13T05:11:02.188Z,84.62
2023-02-13T05:12:02.178Z,84.52
2023-02-13T05:13:02.210Z,84.72
2023-02-13T05:14:02.148Z,84.42
2023-02-13T05:15:02.162Z,84.62
2023-02-13T05:16:02.247Z,84.83
2023-02-13T05:17:02.143Z,84.31
2023-02-13T05:18:02.128Z,84.62
2023-02-13T05:19:02.115Z,84.62
2023-02-13T05:20:02.173Z,84.42
2023-02-13T05:21:02.079Z,84.62
2023-02-13T05:22:02.080Z,84.83
2023-02-13T05:23:02.078Z,84.62
2023-02-13T05:24:02.068Z,84.83
2023-02-13T05:25:02.040Z,84.62
2023-02-13T05:26:02.042Z,84.83
2023-02-13T05:27:02.031Z,84.72
2023-02-13T05:28:02.052Z,85.24
2023-02-13T05:29:01.991Z,85.03
2023-02-13T05:30:02.036Z,84.52
2023-02-13T05:31:02.582Z,84.42
2023-02-13T05:32:02.106Z,84.00
2023-02-13T05:33:01.970Z,83.90
2023-02-13T05:34:01.954Z,84.00
2023-02-13T05:35:04.293Z,83.90
2023-02-13T05:36:01.914Z,83.70
2023-02-13T05:37:01.933Z,83.90
2023-02-13T05:38:01.914Z,84.42
2023-02-13T05:39:01.904Z,84.11
2023-02-13T05:40:01.871Z,84.25
2023-02-13T05:41:01.885Z,84.05
2023-02-13T05:42:01.881Z,84.14
2023-02-13T05:43:01.891Z,84.14
2023-02-13T05:44:01.852Z,84.35
2023-02-13T05:45:01.850Z,84.56
2023-02-13T05:46:01.865Z,84.77
2023-02-13T05:47:01.818Z,84.77
2023-02-13T05:48:01.814Z,84.87
2023-02-13T05:49:04.528Z,84.80
2023-02-13T05:50:01.777Z,84.77
2023-02-13T05:51:01.785Z,84.91
2023-02-13T05:52:01.776Z,84.91
2023-02-13T05:53:01.764Z,84.91
2023-02-13T05:54:01.740Z,85.01
2023-02-13T05:55:01.757Z,85.11
2023-02-13T05:56:01.713Z,85.11
2023-02-13T05:57:01.753Z,85.11
2023-02-13T05:58:01.711Z,85.22
2023-02-13T05:59:01.696Z,85.42
2023-02-13T06:00:01.671Z,85.63
2023-02-13T06:01:01.667Z,85.83
2023-02-13T06:02:01.645Z,85.73
2023-02-13T06:03:01.641Z,85.52
2023-02-13T06:04:03.884Z,85.22
2023-02-13T06:05:01.622Z,85.52
2023-02-13T06:06:01.588Z,85.73
2023-02-13T06:07:01.619Z,86.24
2023-02-13T06:08:01.570Z,87.11
2023-02-13T06:09:01.581Z,86.90
2023-02-13T06:10:01.520Z,86.22
2023-02-13T06:11:01.973Z,87.26
2023-02-13T06:12:01.482Z,87.26
2023-02-13T06:13:01.603Z,87.15
2023-02-13T06:14:01.525Z,87.05
2023-02-13T06:15:01.432Z,87.05
2023-02-13T06:16:01.550Z,86.80
2023-02-13T06:17:01.511Z,86.60
2023-02-13T06:18:01.459Z,86.29
2023-02-13T06:19:01.418Z,86.39
2023-02-13T06:20:01.377Z,86.29
2023-02-13T06:21:01.422Z,86.63
2023-02-13T06:22:01.390Z,86.63
2023-02-13T06:23:01.390Z,86.53
2023-02-13T06:24:01.394Z,86.74
2023-02-13T06:25:01.327Z,86.74
2023-02-13T06:26:01.487Z,86.84
2023-02-13T06:27:01.362Z,87.29
2023-02-13T06:28:01.341Z,87.60
2023-02-13T06:29:01.318Z,87.50
2023-02-13T06:30:01.315Z,87.60
2023-02-13T06:31:01.804Z,87.60
2023-02-13T06:32:01.359Z,87.65
2023-02-13T06:33:01.269Z,88.26
2023-02-13T06:34:01.280Z,88.26
2023-02-13T06:35:01.249Z,88.68
2023-02-13T06:36:01.251Z,89.23
2023-02-13T06:37:01.213Z,89.34
2023-02-13T06:38:01.202Z,88.61
2023-02-13T06:39:01.223Z,88.20
2023-02-13T06:40:01.190Z,88.76
2023-02-13T06:41:01.156Z,89.73
2023-02-13T06:42:01.157Z,89.52
2023-02-13T06:43:01.164Z,89.87
2023-02-13T06:44:01.171Z,90.50
2023-02-13T06:45:01.121Z,91.01
2023-02-13T06:46:01.103Z,90.95
2023-02-13T06:47:01.185Z,90.84
2023-02-13T06:48:01.101Z,90.78
2023-02-13T06:49:01.103Z,91.82
2023-02-13T06:50:01.056Z,92.34
2023-02-13T06:51:01.119Z,91.41
2023-02-13T06:52:01.110Z,92.76
2023-02-13T06:53:01.030Z,92.34
2023-02-13T06:54:01.006Z,91.93
2023-02-13T06:55:01.064Z,92.76
2023-02-13T06:56:00.993Z,92.76
2023-02-13T06:57:01.016Z,92.44
2023-02-13T06:58:01.017Z,92.13
2023-02-13T06:59:00.978Z,91.35
2023-02-13T07:00:00.973Z,91.97
2023-02-13T07:01:01.135Z,91.97
2023-02-13T07:02:00.964Z,92.53
2023-02-13T07:03:00.959Z,93.04
2023-02-13T07:04:00.901Z,92.94
2023-02-13T07:05:00.892Z,93.56
2023-02-13T07:06:00.898Z,93.98
2023-02-13T07:07:00.889Z,93.87
2023-02-13T07:08:00.938Z,93.91
2023-02-13T07:09:00.839Z,94.02
2023-02-13T07:10:07.703Z,94.33
2023-02-13T07:11:07.483Z,94.33
2023-02-13T07:12:00.920Z,93.81
2023-02-13T07:13:06.055Z,94.12
2023-02-13T07:14:00.881Z,94.33
2023-02-13T07:15:08.467Z,94.43
2023-02-13T07:16:08.470Z,94.33
2023-02-13T07:17:08.583Z,94.33
2023-02-13T07:18:08.425Z,93.91
2023-02-13T07:19:08.295Z,93.60
2023-02-13T07:20:07.440Z,93.60
2023-02-13T07:21:00.796Z,93.35
2023-02-13T07:22:00.878Z,93.25
2023-02-13T07:24:12.506Z,93.46
2023-02-13T07:25:13.480Z,93.25
2023-02-13T07:26:13.501Z,92.59
2023-02-13T07:27:13.488Z,92.38
2023-02-13T07:28:13.561Z,91.97
2023-02-13T07:29:19.964Z,91.86
2023-02-13T07:30:13.441Z,92.18
2023-02-13T07:31:13.526Z,91.82
2023-02-13T07:32:13.411Z,90.78
2023-02-13T07:33:13.775Z,90.99
2023-02-13T07:34:13.381Z,91.05
2023-02-13T07:35:13.359Z,90.95
2023-02-13T07:36:13.363Z,89.40
2023-02-13T07:37:13.370Z,88.16
2023-02-13T07:38:13.332Z,88.71
2023-02-13T07:39:13.318Z,89.29
2023-02-13T07:40:13.317Z,89.25
2023-02-13T07:41:13.300Z,88.28
2023-02-13T07:42:13.291Z,87.07
2023-02-13T07:43:13.289Z,85.47
2023-02-13T07:44:13.260Z,84.27
2023-02-13T07:45:13.252Z,83.81
2023-02-13T07:46:13.239Z,82.91
2023-02-13T07:47:13.270Z,81.53
2023-02-13T07:48:13.248Z,80.26
2023-02-13T07:49:13.209Z,78.78
2023-02-13T07:50:13.238Z,77.92
2023-02-13T07:51:13.188Z,76.76
2023-02-13T07:52:13.214Z,75.80
2023-02-13T07:53:13.196Z,75.35
2023-02-13T07:54:13.157Z,74.74
2023-02-13T07:55:13.150Z,74.80
2023-02-13T07:56:13.129Z,74.46
2023-02-13T07:57:13.136Z,72.68
2023-02-13T07:58:13.114Z,71.32
2023-02-13T07:59:13.116Z,69.89
2023-02-13T08:00:13.096Z,70.40
2023-02-13T08:01:13.080Z,69.78
2023-02-13T08:02:13.294Z,70.26
2023-02-13T08:03:13.063Z,70.12
2023-02-13T08:04:13.215Z,69.99
2023-02-13T08:05:13.047Z,69.79
2023-02-13T08:06:13.028Z,69.65
2023-02-13T08:07:13.053Z,68.19
2023-02-13T08:08:13.010Z,68.39
2023-02-13T08:09:13.003Z,68.49
2023-02-13T08:10:12.985Z,68.23
2023-02-13T08:11:12.979Z,67.21
2023-02-13T08:12:13.051Z,67.21
2023-02-13T08:13:12.950Z,66.25
2023-02-13T08:14:12.964Z,66.74
2023-02-13T08:15:12.947Z,66.63
2023-02-13T08:16:12.986Z,65.48
2023-02-13T08:17:12.922Z,64.73
2023-02-13T08:18:12.891Z,64.73
2023-02-13T08:19:13.056Z,64.43
2023-02-13T08:20:12.899Z,65.01
2023-02-13T08:21:12.852Z,64.20
2023-02-13T08:22:12.892Z,63.56
2023-02-13T08:23:12.965Z,63.12
2023-02-13T08:24:12.822Z,63.22
2023-02-13T08:25:12.835Z,62.81
2023-02-13T08:26:12.797Z,62.27
2023-02-13T08:27:12.808Z,62.07
2023-02-13T08:28:12.849Z,62.14
2023-02-13T08:29:12.792Z,62.37
2023-02-13T08:30:12.760Z,62.04
2023-02-13T08:31:12.789Z,61.71
2023-02-13T08:32:12.859Z,60.56
2023-02-13T08:33:12.724Z,60.15
2023-02-13T08:34:12.713Z,59.60
2023-02-13T08:35:12.712Z,60.95
2023-02-13T08:36:12.708Z,62.35
2023-02-13T08:37:12.719Z,61.40
2023-02-13T08:38:12.674Z,60.69
2023-02-13T08:39:12.669Z,59.34
2023-02-13T08:40:12.805Z,59.84
2023-02-13T08:41:12.643Z,58.27
2023-02-13T08:42:15.748Z,58.12
2023-02-13T08:43:12.614Z,59.75
2023-02-13T08:44:12.614Z,58.91
2023-02-13T08:45:12.592Z,58.56
2023-02-13T08:46:12.624Z,59.98
2023-02-13T08:47:12.693Z,59.27
2023-02-13T08:48:12.596Z,58.73
2023-02-13T08:49:12.591Z,57.68
2023-02-13T08:50:12.627Z,57.97
2023-02-13T08:51:12.553Z,58.34
2023-02-13T08:52:12.737Z,57.12
2023-02-13T08:53:12.515Z,56.36
2023-02-13T08:54:12.526Z,55.93
2023-02-13T08:55:12.489Z,54.61
2023-02-13T08:56:12.524Z,54.82
2023-02-13T08:57:12.737Z,55.32
2023-02-13T08:58:12.490Z,55.19
2023-02-13T08:59:12.502Z,54.08
2023-02-13T09:00:12.436Z,54.31
2023-02-13T09:01:12.504Z,54.59
2023-02-13T09:02:12.431Z,53.96
2023-02-13T09:03:12.520Z,54.33
2023-02-13T09:04:12.405Z,54.44
2023-02-13T09:05:12.384Z,55.22
2023-02-13T09:06:12.372Z,54.51
2023-02-13T09:07:12.392Z,54.51
2023-02-13T09:08:12.353Z,55.22
2023-02-13T09:09:12.344Z,55.22
2023-02-13T09:10:12.373Z,55.07
2023-02-13T09:11:12.316Z,54.18
2023-02-13T09:12:12.323Z,55.32
2023-02-13T09:13:12.297Z,54.16
2023-02-13T09:14:12.304Z,53.07
2023-02-13T09:15:12.282Z,53.85
2023-02-13T09:16:12.268Z,54.00
2023-02-13T09:17:12.276Z,54.44
2023-02-13T09:18:12.247Z,54.86
2023-02-13T09:19:12.259Z,55.80
2023-02-13T09:20:12.221Z,54.84
2023-02-13T09:21:12.224Z,54.11
2023-02-13T09:22:12.230Z,53.07
2023-02-13T09:23:12.197Z,53.45
2023-02-13T09:24:12.184Z,52.48
2023-02-13T09:25:12.190Z,51.98
2023-02-13T09:26:12.168Z,51.48
2023-02-13T09:27:12.172Z,51.98
2023-02-13T09:28:12.214Z,51.03
2023-02-13T09:29:12.147Z,49.96
2023-02-13T09:30:12.128Z,51.20
2023-02-13T09:31:12.300Z,49.96
2023-02-13T09:32:12.238Z,49.66
2023-02-13T09:33:12.102Z,49.04
2023-02-13T09:34:12.087Z,48.96
2023-02-13T09:35:12.079Z,49.33
2023-02-13T09:36:12.062Z,48.63
2023-02-13T09:37:12.069Z,48.85
2023-02-13T09:38:12.053Z,49.21
2023-02-13T09:39:12.035Z,49.33
2023-02-13T09:40:12.022Z,48.73
2023-02-13T09:41:12.007Z,50.27
2023-02-13T09:42:12.037Z,48.21
2023-02-13T09:43:11.987Z,48.61
2023-02-13T09:44:12.050Z,50.27
2023-02-13T09:45:11.970Z,50.49
2023-02-13T09:46:12.030Z,48.55
2023-02-13T09:47:11.976Z,49.66
2023-02-13T09:48:12.027Z,49.87
2023-02-13T09:49:11.942Z,49.13
2023-02-13T09:50:11.934Z,49.11
2023-02-13T09:51:11.916Z,49.30
2023-02-13T09:52:11.933Z,50.24
2023-02-13T09:53:11.889Z,52.11
2023-02-13T09:54:11.887Z,51.17
2023-02-13T09:55:11.878Z,50.12
2023-02-13T09:56:11.863Z,48.96
2023-02-13T09:57:11.878Z,48.55
2023-02-13T09:58:11.844Z,49.18
2023-02-13T09:59:11.822Z,49.48
2023-02-13T10:00:11.869Z,49.16
2023-02-13T10:01:11.827Z,48.93
2023-02-13T10:02:11.813Z,49.91
2023-02-13T10:03:11.796Z,50.21
2023-02-13T10:04:11.796Z,49.96
2023-02-13T10:05:11.844Z,47.70
2023-02-13T10:06:11.755Z,47.50
2023-02-13T10:07:11.752Z,47.17
2023-02-13T10:08:11.738Z,46.67
2023-02-13T10:09:11.758Z,47.96
2023-02-13T10:10:11.743Z,46.95
2023-02-13T10:11:11.706Z,47.97
2023-02-13T10:12:11.705Z,49.46
2023-02-13T10:13:11.718Z,50.29
2023-02-13T10:14:11.681Z,49.05
2023-02-13T10:15:11.672Z,48.90
2023-02-13T10:16:11.736Z,50.77
2023-02-13T10:17:11.667Z,49.41
2023-02-13T10:18:11.663Z,49.61
2023-02-13T10:19:11.612Z,49.48
2023-02-13T10:20:11.637Z,50.04
2023-02-13T10:21:11.608Z,49.41
2023-02-13T10:22:11.607Z,49.61
2023-02-13T10:23:11.581Z,48.98
2023-02-13T10:24:11.576Z,48.58
2023-02-13T10:25:11.565Z,48.45
2023-02-13T10:26:11.548Z,47.87
2023-02-13T10:27:11.551Z,49.55
2023-02-13T10:28:11.591Z,50.06
2023-02-13T10:29:11.517Z,50.06
2023-02-13T10:30:11.521Z,50.57
2023-02-13T10:31:11.683Z,50.42
2023-02-13T10:32:11.632Z,49.13
2023-02-13T10:33:11.497Z,46.14
2023-02-13T10:34:11.502Z,45.59
2023-02-13T10:35:11.458Z,44.65
2023-02-13T10:36:11.507Z,45.15
2023-02-13T10:37:11.467Z,43.82
2023-02-13T10:38:11.433Z,44.12
2023-02-13T10:39:11.432Z,44.45
2023-02-13T10:40:11.457Z,44.63
2023-02-13T10:41:11.466Z,43.96
2023-02-13T10:42:11.641Z,42.63
2023-02-13T10:43:11.392Z,42.21
2023-02-13T10:44:11.371Z,41.91
2023-02-13T10:45:11.380Z,41.91
2023-02-13T10:46:11.431Z,41.99
2023-02-13T10:47:11.358Z,42.94
2023-02-13T10:48:11.331Z,42.44
2023-02-13T10:49:11.312Z,42.25
2023-02-13T10:50:11.307Z,43.62
2023-02-13T10:51:11.295Z,45.14
2023-02-13T10:52:11.309Z,46.83
2023-02-13T10:53:11.267Z,46.04
2023-02-13T10:54:11.271Z,46.67
2023-02-13T10:55:11.267Z,47.42
2023-02-13T10:56:11.251Z,46.79
2023-02-13T10:57:11.250Z,46.97
2023-02-13T10:58:11.226Z,47.20
2023-02-13T10:59:11.230Z,44.37
2023-02-13T11:00:11.197Z,44.24
2023-02-13T11:01:11.192Z,43.38
2023-02-13T11:02:11.224Z,42.55
2023-02-13T11:03:11.160Z,43.16
2023-02-13T11:04:11.431Z,42.35
2023-02-13T11:05:11.163Z,42.38
2023-02-13T11:06:11.166Z,44.32
2023-02-13T11:07:11.135Z,43.20
2023-02-13T11:08:19.076Z,43.16
2023-02-13T11:09:18.741Z,42.44
2023-02-13T11:10:18.926Z,42.24
2023-02-13T11:11:19.130Z,41.83
2023-02-13T11:12:20.078Z,43.42
2023-02-13T11:13:18.563Z,45.59
2023-02-13T11:14:11.133Z,44.02
2023-02-13T11:15:11.047Z,42.96
2023-02-13T11:16:18.726Z,42.52
2023-02-13T11:17:18.940Z,41.21
2023-02-13T11:18:11.049Z,42.61
2023-02-13T11:19:11.005Z,42.11
2023-02-13T11:20:10.996Z,42.11
2023-02-13T11:21:11.007Z,42.66
2023-02-13T11:22:18.911Z,42.88
2023-02-13T11:23:18.134Z,42.18
2023-02-13T11:24:11.112Z,42.97
2023-02-13T11:25:10.978Z,42.24
2023-02-13T11:26:10.992Z,41.39
2023-02-13T11:27:10.929Z,41.60
2023-02-13T11:28:10.948Z,42.69
2023-02-13T11:29:10.910Z,41.17
2023-02-13T11:30:11.027Z,40.75
2023-02-13T11:31:10.968Z,41.15
2023-02-13T11:32:10.993Z,40.17
2023-02-13T11:33:10.889Z,40.83
2023-02-13T11:34:10.849Z,41.75
2023-02-13T11:35:10.836Z,41.09
2023-02-13T11:36:10.846Z,40.15
2023-02-13T11:37:10.827Z,40.05
2023-02-13T11:38:10.903Z,40.65
2023-02-13T11:39:10.931Z,40.35
2023-02-13T11:40:10.814Z,39.61
2023-02-13T11:41:10.814Z,40.00
2023-02-13T11:42:10.813Z,39.46
2023-02-13T11:43:10.815Z,40.65
2023-02-13T11:44:10.837Z,41.55
2023-02-13T11:45:10.750Z,40.33
2023-02-13T11:46:10.785Z,39.03
2023-02-13T11:47:10.773Z,40.33
2023-02-13T11:48:10.741Z,39.73
2023-02-13T11:49:10.692Z,41.57
2023-02-13T11:50:10.701Z,40.89
2023-02-13T11:51:10.694Z,40.15
2023-02-13T11:52:10.690Z,39.73
2023-02-13T11:53:10.674Z,39.31
2023-02-13T11:54:10.648Z,39.31
2023-02-13T11:55:10.805Z,39.72
2023-02-13T11:56:10.669Z,38.68
2023-02-13T11:57:10.678Z,38.49
2023-02-13T11:58:10.774Z,39.00
2023-02-13T11:59:10.689Z,41.38
2023-02-13T12:00:10.923Z,39.97
2023-02-13T12:01:10.785Z,40.77
2023-02-13T12:02:10.602Z,40.53
2023-02-13T12:03:10.698Z,38.71
2023-02-13T12:04:10.561Z,38.07
2023-02-13T12:05:10.566Z,38.26
2023-02-13T12:06:10.557Z,37.42
2023-02-13T12:07:10.526Z,37.42
2023-02-13T12:08:10.507Z,38.78
2023-02-13T12:09:10.496Z,38.91
2023-02-13T12:10:10.479Z,40.01
2023-02-13T12:11:10.465Z,38.66
2023-02-13T12:12:10.501Z,38.66
2023-02-13T12:13:10.457Z,38.20
2023-02-13T12:14:10.465Z,38.04
2023-02-13T12:15:10.574Z,37.90
2023-02-13T12:16:10.489Z,39.18
2023-02-13T12:17:14.385Z,37.46
2023-02-13T12:18:10.420Z,37.64
2023-02-13T12:19:10.422Z,36.91
2023-02-13T12:20:10.386Z,37.04
2023-02-13T12:21:10.399Z,37.90
2023-02-13T12:22:10.428Z,38.53
2023-02-13T12:23:10.449Z,38.42
2023-02-13T12:24:10.349Z,38.21
2023-02-13T12:25:10.560Z,39.01
2023-02-13T12:26:19.340Z,38.40
2023-02-13T12:27:10.361Z,40.15
2023-02-13T12:28:10.417Z,40.49
2023-02-13T12:29:10.306Z,40.29
2023-02-13T12:30:10.331Z,40.55
2023-02-13T12:31:10.279Z,39.95
2023-02-13T12:32:10.272Z,38.49
2023-02-13T12:33:10.285Z,39.36
2023-02-13T12:34:10.242Z,37.86
2023-02-13T12:35:17.113Z,37.59
2023-02-13T12:36:17.816Z,38.09
2023-02-13T12:37:10.278Z,39.35
2023-02-13T12:38:10.200Z,40.05
2023-02-13T12:39:10.220Z,39.45
2023-02-13T12:40:10.218Z,40.09
2023-02-13T12:41:16.775Z,39.79
2023-02-13T12:42:18.871Z,40.87
2023-02-13T12:43:10.192Z,41.61
2023-02-13T12:44:10.210Z,38.98
2023-02-13T12:45:17.780Z,38.51
2023-02-13T12:46:10.282Z,38.63
2023-02-13T12:47:10.139Z,39.18
2023-02-13T12:48:10.163Z,39.05
2023-02-13T12:49:10.107Z,39.61
2023-02-13T12:50:17.605Z,38.59
2023-02-13T12:51:10.090Z,39.73
2023-02-13T12:52:19.073Z,40.83
2023-02-13T12:53:18.103Z,39.97